createdAt,value
2022-12-12T00:01:48.241Z,19.37
2022-12-12T00:04:14.870Z,19.57
2022-12-12T00:06:41.516Z,19.73
2022-12-12T00:09:09.433Z,17.17
2022-12-12T00:11:36.120Z,18.73
2022-12-12T00:14:03.339Z,21.87
2022-12-12T00:16:30.301Z,20.60
2022-12-12T00:18:57.266Z,18.90
2022-12-12T00:21:27.336Z,20.10
2022-12-12T00:23:54.823Z,21.40
2022-12-12T00:26:32.676Z,19.70
2022-12-12T00:29:01.149Z,19.27
2022-12-12T00:31:28.932Z,19.03
2022-12-12T00:33:55.791Z,19.80
2022-12-12T00:36:25.105Z,20.40
2022-12-12T00:38:53.405Z,19.23
2022-12-12T00:41:20.839Z,18.37
2022-12-12T00:43:47.933Z,18.73
2022-12-12T00:46:20.594Z,18.60
2022-12-12T00:48:47.777Z,19.10
2022-12-12T00:51:18.351Z,18.80
2022-12-12T00:53:45.595Z,18.27
2022-12-12T00:56:14.397Z,19.07
2022-12-12T00:58:41.063Z,17.77
2022-12-12T01:01:13.327Z,19.17
2022-12-12T01:03:41.310Z,19.07
2022-12-12T01:06:09.973Z,18.50
2022-12-12T01:08:37.957Z,18.20
2022-12-12T01:11:05.140Z,17.13
2022-12-12T01:13:31.850Z,18.33
2022-12-12T01:15:59.232Z,19.47
2022-12-12T01:18:26.516Z,18.97
2022-12-12T01:20:53.491Z,18.83
2022-12-12T01:23:20.284Z,19.53
2022-12-12T01:25:47.148Z,19.17
2022-12-12T01:28:14.568Z,18.77
2022-12-12T01:30:41.668Z,19.57
2022-12-12T01:33:08.335Z,17.67
2022-12-12T01:35:34.990Z,19.97
2022-12-12T01:38:01.635Z,18.43
2022-12-12T01:40:30.508Z,17.93
2022-12-12T01:42:57.209Z,18.80
2022-12-12T01:45:58.032Z,18.60
2022-12-12T01:48:35.193Z,17.53
2022-12-12T01:51:06.542Z,17.40
2022-12-12T01:53:34.291Z,16.33
2022-12-12T01:56:05.047Z,18.20
2022-12-12T01:58:31.949Z,18.73
2022-12-12T02:00:58.584Z,18.13
2022-12-12T02:03:26.024Z,17.43
2022-12-12T02:05:58.239Z,18.97
2022-12-12T02:08:26.140Z,18.03
2022-12-12T02:10:52.780Z,18.90
2022-12-12T02:13:23.832Z,18.50
2022-12-12T02:16:06.071Z,18.53
2022-12-12T02:18:51.126Z,18.20
2022-12-12T02:21:22.655Z,18.40
2022-12-12T02:24:12.300Z,19.53
2022-12-12T02:27:13.806Z,18.87
2022-12-12T02:29:58.261Z,17.30
2022-12-12T02:32:35.102Z,18.13
2022-12-12T02:35:21.115Z,18.35
2022-12-12T02:37:50.851Z,18.33
2022-12-12T02:40:35.726Z,18.10
2022-12-12T02:43:14.010Z,17.67
2022-12-12T02:45:54.731Z,17.47
2022-12-12T02:48:41.151Z,18.20
2022-12-12T02:51:10.648Z,17.70
2022-12-12T02:53:37.379Z,18.97
2022-12-12T02:56:08.369Z,17.40
2022-12-12T02:58:38.556Z,16.83
2022-12-12T03:01:27.440Z,17.50
2022-12-12T03:04:53.058Z,17.17
2022-12-12T03:07:47.470Z,16.80
2022-12-12T03:10:32.291Z,19.33
2022-12-12T03:13:07.974Z,16.87
2022-12-12T03:15:51.144Z,17.53
2022-12-12T03:18:31.420Z,17.03
2022-12-12T03:21:10.354Z,18.87
2022-12-12T03:23:41.713Z,17.47
2022-12-12T03:26:11.345Z,18.03
2022-12-12T03:28:48.838Z,19.17
2022-12-12T03:31:19.724Z,19.17
2022-12-12T03:33:58.170Z,18.13
2022-12-12T03:36:56.926Z,17.47
2022-12-12T03:39:38.823Z,17.93
2022-12-12T03:42:21.221Z,18.63
2022-12-12T03:45:20.905Z,17.93
2022-12-12T03:47:52.742Z,17.43
2022-12-12T03:50:22.006Z,18.33
2022-12-12T03:52:56.634Z,19.67
2022-12-12T03:55:39.475Z,17.90
2022-12-12T03:58:15.631Z,16.95
2022-12-12T04:00:44.990Z,18.30
2022-12-12T04:03:34.069Z,17.13
2022-12-12T04:06:27.306Z,18.97
2022-12-12T04:09:35.512Z,18.07
2022-12-12T04:12:48.403Z,18.00
2022-12-12T04:15:46.706Z,17.67
2022-12-12T04:18:25.374Z,17.07
2022-12-12T04:21:13.519Z,19.13
2022-12-12T04:23:48.811Z,17.03
2022-12-12T04:26:41.939Z,19.83
2022-12-12T04:29:34.716Z,17.63
2022-12-12T04:32:08.867Z,16.87
2022-12-12T04:34:50.051Z,17.97
2022-12-12T04:37:21.714Z,18.17
2022-12-12T04:39:51.194Z,18.43
2022-12-12T04:42:22.968Z,18.15
2022-12-12T04:44:54.543Z,17.83
2022-12-12T04:47:22.425Z,17.75
2022-12-12T04:49:52.428Z,17.23
2022-12-12T04:52:20.922Z,16.53
2022-12-12T04:54:56.534Z,17.70
2022-12-12T04:57:31.478Z,17.73
2022-12-12T04:59:58.229Z,18.10
2022-12-12T05:02:39.813Z,17.70
2022-12-12T05:05:26.192Z,18.70
2022-12-12T05:07:57.932Z,19.13
2022-12-12T05:10:25.117Z,18.63
2022-12-12T05:12:57.775Z,20.60
2022-12-12T05:15:24.789Z,18.93
2022-12-12T05:18:02.591Z,19.20
2022-12-12T05:20:29.623Z,17.50
2022-12-12T05:22:56.298Z,18.10
2022-12-12T05:25:22.877Z,18.60
2022-12-12T05:27:49.476Z,17.30
2022-12-12T05:30:16.617Z,19.25
2022-12-12T05:32:43.269Z,19.57
2022-12-12T05:35:10.552Z,19.23
2022-12-12T05:37:37.349Z,18.63
2022-12-12T05:40:05.705Z,18.23
2022-12-12T05:42:32.327Z,20.88
2022-12-12T05:44:59.027Z,20.57
2022-12-12T05:47:25.633Z,22.07
2022-12-12T05:49:52.470Z,22.10
2022-12-12T05:52:19.873Z,20.30
2022-12-12T05:54:46.455Z,19.10
2022-12-12T05:57:13.092Z,19.20
2022-12-12T05:59:39.723Z,21.30
2022-12-12T06:02:06.415Z,20.90
2022-12-12T06:04:33.184Z,20.87
2022-12-12T06:06:59.979Z,20.97
2022-12-12T06:09:26.736Z,21.83
2022-12-12T06:11:53.537Z,20.97
2022-12-12T06:14:20.142Z,21.57
2022-12-12T06:16:46.781Z,21.87
2022-12-12T06:19:13.455Z,19.37
2022-12-12T06:21:40.172Z,21.20
2022-12-12T06:24:07.597Z,21.30
2022-12-12T06:26:34.354Z,19.70
2022-12-12T06:29:00.969Z,20.47
2022-12-12T06:31:27.933Z,19.67
2022-12-12T06:33:54.568Z,19.10
2022-12-12T06:36:26.537Z,19.93
2022-12-12T06:38:59.196Z,19.13
2022-12-12T06:41:27.930Z,19.23
2022-12-12T06:43:55.362Z,18.93
2022-12-12T06:46:26.010Z,43.00
2022-12-12T06:48:54.142Z,28.40
2022-12-12T06:51:26.711Z,21.90
2022-12-12T06:53:53.831Z,21.63
2022-12-12T06:56:23.362Z,20.30
2022-12-12T06:58:50.816Z,22.57
2022-12-12T07:01:20.041Z,20.90
2022-12-12T07:03:47.709Z,20.13
2022-12-12T07:06:14.371Z,19.90
2022-12-12T07:08:41.570Z,20.30
2022-12-12T07:11:14.165Z,19.87
2022-12-12T07:13:40.840Z,19.33
2022-12-12T07:16:08.120Z,20.33
2022-12-12T07:18:35.249Z,21.37
2022-12-12T07:21:10.929Z,20.03
2022-12-12T07:23:37.983Z,20.03
2022-12-12T07:26:13.612Z,20.23
2022-12-12T07:28:40.295Z,20.40
2022-12-12T07:31:16.210Z,20.13
2022-12-12T07:33:44.796Z,20.07
2022-12-12T07:36:16.528Z,20.40
2022-12-12T07:38:44.170Z,19.17
2022-12-12T07:41:13.214Z,19.93
2022-12-12T07:43:44.094Z,21.03
2022-12-12T07:46:16.782Z,20.00
2022-12-12T07:48:43.841Z,17.47
2022-12-12T07:51:10.755Z,18.43
2022-12-12T07:53:37.388Z,18.23
2022-12-12T07:56:11.815Z,18.77
2022-12-12T07:58:38.785Z,18.23
2022-12-12T08:01:14.911Z,19.60
2022-12-12T08:03:43.693Z,19.80
2022-12-12T08:06:11.195Z,19.53
2022-12-12T08:08:37.899Z,19.43
2022-12-12T08:11:06.610Z,19.83
2022-12-12T08:13:34.991Z,19.13
2022-12-12T08:16:01.885Z,20.23
2022-12-12T08:18:28.804Z,20.13
2022-12-12T08:20:55.591Z,18.30
2022-12-12T08:23:22.361Z,18.70
2022-12-12T08:25:49.037Z,18.83
2022-12-12T08:28:15.661Z,18.60
2022-12-12T08:30:42.310Z,20.17
2022-12-12T08:33:08.911Z,20.60
2022-12-12T08:35:35.560Z,19.33
2022-12-12T08:38:03.508Z,19.77
2022-12-12T08:40:30.147Z,18.43
2022-12-12T08:42:56.800Z,18.33
2022-12-12T08:45:23.449Z,18.43
2022-12-12T08:47:50.136Z,19.20
2022-12-12T08:50:16.799Z,19.13
2022-12-12T08:52:43.553Z,19.37
2022-12-12T08:55:11.247Z,19.73
2022-12-12T08:57:38.182Z,20.47
2022-12-12T09:00:05.150Z,19.47
2022-12-12T09:02:31.865Z,21.00
2022-12-12T09:04:58.645Z,18.53
2022-12-12T09:07:25.276Z,20.63
2022-12-12T09:09:51.935Z,19.60
2022-12-12T09:12:18.521Z,18.73
2022-12-12T09:14:45.164Z,18.95
2022-12-12T09:17:11.802Z,19.10
2022-12-12T09:19:39.787Z,18.57
2022-12-12T09:22:06.418Z,18.48
2022-12-12T09:24:33.025Z,18.05
2022-12-12T09:26:59.773Z,19.53
2022-12-12T09:29:26.572Z,19.73
2022-12-12T09:31:53.192Z,18.63
2022-12-12T09:34:19.853Z,20.77
2022-12-12T09:36:46.664Z,18.93
2022-12-12T09:39:13.278Z,18.63
2022-12-12T09:41:39.966Z,19.90
2022-12-12T09:44:11.205Z,17.90
2022-12-12T09:46:47.460Z,19.30
2022-12-12T09:49:16.225Z,18.27
2022-12-12T09:51:45.906Z,19.57
2022-12-12T09:54:15.838Z,20.50
2022-12-12T09:57:03.395Z,20.93
2022-12-12T09:59:45.845Z,17.58
2022-12-12T10:02:33.863Z,18.10
2022-12-12T10:05:38.993Z,18.87
2022-12-12T10:08:19.952Z,19.70
2022-12-12T10:10:51.617Z,18.97
2022-12-12T10:13:23.559Z,18.77
2022-12-12T10:15:54.687Z,20.17
2022-12-12T10:18:26.893Z,18.90
2022-12-12T10:20:57.424Z,17.85
2022-12-12T10:23:30.263Z,19.33
2022-12-12T10:26:13.056Z,18.47
2022-12-12T10:28:39.744Z,17.90
2022-12-12T10:31:24.017Z,18.75
2022-12-12T10:34:05.627Z,17.35
2022-12-12T10:37:09.995Z,16.93
2022-12-12T10:39:55.625Z,17.33
2022-12-12T10:42:43.221Z,17.67
2022-12-12T10:45:51.213Z,17.30
2022-12-12T10:48:17.908Z,19.23
2022-12-12T10:50:54.664Z,17.93
2022-12-12T10:53:22.073Z,18.37
2022-12-12T10:56:07.657Z,18.07
2022-12-12T10:58:40.590Z,17.57
2022-12-12T11:01:18.880Z,19.30
2022-12-12T11:03:54.668Z,16.80
2022-12-12T11:06:38.647Z,18.50
2022-12-12T11:09:26.732Z,18.57
2022-12-12T11:12:32.235Z,18.47
2022-12-12T11:15:06.688Z,18.67
2022-12-12T11:17:34.666Z,23.30
2022-12-12T11:20:14.050Z,22.03
2022-12-12T11:22:40.918Z,19.83
2022-12-12T11:25:07.724Z,18.80
2022-12-12T11:27:37.868Z,19.30
2022-12-12T11:30:25.051Z,19.38
2022-12-12T11:32:55.039Z,17.93
2022-12-12T11:35:42.596Z,19.13
2022-12-12T11:38:20.044Z,18.60
2022-12-12T11:41:01.121Z,17.13
2022-12-12T11:43:34.510Z,17.58
2022-12-12T11:46:14.372Z,19.20
2022-12-12T11:48:47.161Z,19.47
2022-12-12T11:51:29.812Z,19.33
2022-12-12T11:53:56.508Z,18.17
2022-12-12T11:56:50.128Z,17.83
2022-12-12T11:59:38.353Z,16.13
2022-12-12T12:02:08.161Z,18.42
2022-12-12T12:04:40.599Z,18.57
2022-12-12T12:07:18.511Z,18.60
2022-12-12T12:10:03.086Z,19.77
2022-12-12T12:12:44.764Z,18.77
2022-12-12T12:15:21.069Z,17.20
2022-12-12T12:17:47.631Z,19.13
2022-12-12T12:20:33.480Z,20.50
2022-12-12T12:23:14.056Z,19.80
2022-12-12T12:26:20.715Z,22.03
2022-12-12T12:29:08.569Z,20.53
2022-12-12T12:31:44.077Z,21.00
2022-12-12T12:34:27.506Z,21.95
2022-12-12T12:37:05.827Z,20.65
2022-12-12T12:39:54.859Z,21.77
2022-12-12T12:42:57.860Z,20.48
2022-12-12T12:45:49.559Z,21.23
2022-12-12T12:48:31.418Z,20.98
2022-12-12T12:51:20.291Z,20.02
2022-12-12T12:54:07.491Z,20.83
2022-12-12T12:56:44.203Z,21.27
2022-12-12T12:59:22.362Z,20.75
2022-12-12T13:01:51.583Z,20.85
2022-12-12T13:04:34.920Z,22.30
2022-12-12T13:07:20.862Z,23.38
2022-12-12T13:10:30.232Z,21.13
2022-12-12T13:13:22.783Z,20.05
2022-12-12T13:15:55.851Z,21.40
2022-12-12T13:18:22.682Z,22.02
2022-12-12T13:21:07.552Z,22.45
2022-12-12T13:23:47.031Z,21.05
2022-12-12T13:26:28.506Z,21.05
2022-12-12T13:29:14.028Z,22.42
2022-12-12T13:32:00.118Z,22.38
2022-12-12T13:34:29.138Z,22.03
2022-12-12T13:36:57.902Z,22.00
2022-12-12T13:39:29.959Z,23.02
2022-12-12T13:42:03.135Z,22.60
2022-12-12T13:44:36.608Z,22.15
2022-12-12T13:47:32.464Z,22.07
2022-12-12T13:50:11.481Z,22.00
2022-12-12T13:52:43.167Z,22.25
2022-12-12T13:55:12.803Z,23.35
2022-12-12T13:58:02.409Z,22.67
2022-12-12T14:00:31.073Z,22.65
2022-12-12T14:03:01.755Z,23.30
2022-12-12T14:05:39.594Z,23.65
2022-12-12T14:08:11.460Z,24.27
2022-12-12T14:10:59.015Z,23.40
2022-12-12T14:13:30.275Z,22.90
2022-12-12T14:16:21.629Z,25.73
2022-12-12T14:18:51.894Z,24.47
2022-12-12T14:21:21.085Z,26.02
2022-12-12T14:23:50.311Z,25.23
2022-12-12T14:26:29.069Z,25.47
2022-12-12T14:29:17.528Z,24.63
2022-12-12T14:31:52.700Z,24.70
2022-12-12T14:34:43.499Z,24.05
2022-12-12T14:37:19.341Z,24.13
2022-12-12T14:40:00.705Z,24.93
2022-12-12T14:43:20.763Z,23.50
2022-12-12T14:45:53.191Z,22.92
2022-12-12T14:48:30.290Z,22.45
2022-12-12T14:51:29.509Z,21.43
2022-12-12T14:53:59.047Z,22.08
2022-12-12T14:56:36.673Z,21.30
2022-12-12T14:59:08.261Z,20.90
2022-12-12T15:01:40.172Z,21.67
2022-12-12T15:04:10.233Z,21.02
2022-12-12T15:06:40.299Z,20.13
2022-12-12T15:09:39.524Z,21.73
2022-12-12T15:12:16.150Z,20.27
2022-12-12T15:14:48.609Z,19.93
2022-12-12T15:17:23.368Z,21.05
2022-12-12T15:19:56.421Z,21.07
2022-12-12T15:22:34.869Z,21.40
2022-12-12T15:25:17.328Z,20.53
2022-12-12T15:27:50.822Z,20.97
2022-12-12T15:30:44.740Z,21.27
2022-12-12T15:33:24.207Z,21.37
2022-12-12T15:36:02.217Z,20.47
2022-12-12T15:38:30.332Z,21.87
2022-12-12T15:41:09.601Z,21.40
2022-12-12T15:43:40.722Z,22.47
2022-12-12T15:46:14.179Z,22.80
2022-12-12T15:48:45.821Z,21.63
2022-12-12T15:51:14.865Z,22.53
2022-12-12T15:53:49.083Z,22.37
2022-12-12T15:56:21.790Z,22.40
2022-12-12T15:58:52.828Z,21.80
2022-12-12T16:01:23.938Z,21.50
2022-12-12T16:04:20.711Z,22.93
2022-12-12T16:06:48.726Z,21.47
2022-12-12T16:09:23.987Z,22.13
2022-12-12T16:11:55.444Z,22.13
2022-12-12T16:14:24.940Z,19.60
2022-12-12T16:17:11.823Z,21.10
2022-12-12T16:19:46.623Z,20.67
2022-12-12T16:22:16.060Z,18.77
2022-12-12T16:24:49.734Z,20.63
2022-12-12T16:27:16.657Z,19.30
2022-12-12T16:29:43.626Z,19.30
2022-12-12T16:32:13.921Z,19.80
2022-12-12T16:34:40.734Z,20.13
2022-12-12T16:37:12.760Z,20.43
2022-12-12T16:39:39.414Z,18.77
2022-12-12T16:42:06.082Z,18.03
2022-12-12T16:44:32.668Z,19.83
2022-12-12T16:46:59.260Z,20.73
2022-12-12T16:49:25.873Z,18.93
2022-12-12T16:51:52.451Z,19.70
2022-12-12T16:54:19.078Z,18.55
2022-12-12T16:56:52.307Z,21.40
2022-12-12T16:59:18.950Z,19.43
2022-12-12T17:01:45.876Z,20.63
2022-12-12T17:04:21.111Z,19.53
2022-12-12T17:06:48.243Z,20.13
2022-12-12T17:09:14.891Z,20.43
2022-12-12T17:11:41.604Z,20.90
2022-12-12T17:14:22.265Z,18.63
2022-12-12T17:16:53.743Z,19.10
2022-12-12T17:19:22.775Z,20.63
2022-12-12T17:21:49.469Z,20.57
2022-12-12T17:24:16.193Z,21.67
2022-12-12T17:26:42.847Z,19.83
2022-12-12T17:29:09.560Z,20.13
2022-12-12T17:31:36.423Z,21.57
2022-12-12T17:34:05.267Z,21.47
2022-12-12T17:36:31.986Z,22.17
2022-12-12T17:38:58.709Z,22.50
2022-12-12T17:41:25.360Z,20.47
2022-12-12T17:43:55.659Z,23.17
2022-12-12T17:46:23.645Z,21.50
2022-12-12T17:48:50.842Z,20.43
2022-12-12T17:51:21.057Z,21.40
2022-12-12T17:53:47.949Z,22.67
2022-12-12T17:56:17.140Z,26.17
2022-12-12T17:58:45.817Z,27.63
2022-12-12T18:01:32.963Z,28.17
2022-12-12T18:04:01.199Z,24.93
2022-12-12T18:06:30.243Z,24.37
2022-12-12T18:08:58.145Z,23.80
2022-12-12T18:11:31.353Z,23.27
2022-12-12T18:14:00.655Z,21.80
2022-12-12T18:16:29.354Z,21.03
2022-12-12T18:18:56.919Z,19.43
2022-12-12T18:24:20.388Z,20.20
2022-12-12T18:26:52.796Z,19.97
2022-12-12T18:29:20.655Z,28.37
2022-12-12T18:31:47.533Z,30.57
2022-12-12T18:34:14.879Z,28.30
2022-12-12T18:36:41.614Z,29.33
2022-12-12T18:39:08.716Z,27.93
2022-12-12T18:41:36.724Z,23.77
2022-12-12T18:44:08.669Z,22.07
2022-12-12T18:46:42.341Z,21.70
2022-12-12T18:49:15.192Z,21.30
2022-12-12T18:51:43.211Z,21.17
2022-12-12T18:54:15.344Z,19.67
2022-12-12T18:56:43.910Z,19.37
2022-12-12T18:59:11.127Z,19.00
2022-12-12T19:01:38.569Z,19.50
2022-12-12T19:04:12.155Z,18.83
2022-12-12T19:06:40.998Z,21.90
2022-12-12T19:09:15.424Z,20.87
2022-12-12T19:11:42.871Z,20.60
2022-12-12T19:14:11.598Z,20.30
2022-12-12T19:16:38.324Z,19.83
2022-12-12T19:19:06.287Z,19.13
2022-12-12T19:21:34.884Z,19.10
2022-12-12T19:24:03.046Z,20.20
2022-12-12T19:26:30.403Z,20.97
2022-12-12T19:29:00.112Z,22.80
2022-12-12T19:31:27.017Z,23.70
2022-12-12T19:33:54.268Z,22.97
2022-12-12T19:36:23.806Z,21.63
2022-12-12T19:38:51.466Z,21.50
2022-12-12T19:41:20.600Z,21.97
2022-12-12T19:43:48.726Z,22.23
2022-12-12T19:46:17.748Z,22.23
2022-12-12T19:48:45.537Z,20.90
2022-12-12T19:51:18.024Z,21.77
2022-12-12T19:53:48.736Z,20.57
2022-12-12T19:56:18.307Z,21.17
2022-12-12T19:58:45.273Z,20.23
2022-12-12T20:01:22.261Z,20.87
2022-12-12T20:03:54.850Z,19.80
2022-12-12T20:06:22.255Z,20.50
2022-12-12T20:08:50.581Z,19.17
2022-12-12T20:11:20.927Z,19.80
2022-12-12T20:13:50.493Z,19.70
2022-12-12T20:16:18.958Z,19.47
2022-12-12T20:18:52.318Z,18.47
2022-12-12T20:21:51.859Z,18.00
2022-12-12T20:24:09.607Z,17.60
2022-12-12T20:26:37.402Z,18.50
2022-12-12T20:29:04.167Z,18.63
2022-12-12T20:31:33.735Z,19.53
2022-12-12T20:34:01.231Z,19.53
2022-12-12T20:36:31.783Z,18.33
2022-12-12T20:39:00.233Z,19.23
2022-12-12T20:41:29.481Z,18.40
2022-12-12T20:43:58.459Z,20.37
2022-12-12T20:46:29.623Z,19.77
2022-12-12T20:48:57.780Z,19.33
2022-12-12T20:51:53.977Z,19.67
2022-12-12T20:54:17.202Z,20.23
2022-12-12T20:56:46.400Z,19.87
2022-12-12T20:59:14.256Z,20.57
2022-12-12T21:01:41.168Z,20.07
2022-12-12T21:04:09.214Z,18.43
2022-12-12T21:06:39.050Z,21.43
2022-12-12T21:09:09.506Z,21.17
2022-12-12T21:11:37.361Z,21.03
2022-12-12T21:14:04.776Z,20.40
2022-12-12T21:16:38.651Z,19.87
2022-12-12T21:19:11.485Z,19.30
2022-12-12T21:21:39.846Z,19.73
2022-12-12T21:24:07.145Z,21.00
2022-12-12T21:26:34.577Z,18.77
2022-12-12T21:29:02.264Z,18.90
2022-12-12T21:31:34.974Z,19.40
2022-12-12T21:34:01.949Z,20.93
2022-12-12T21:36:29.699Z,21.30
2022-12-12T21:38:58.210Z,21.60
2022-12-12T21:41:25.687Z,22.50
2022-12-12T21:43:54.250Z,21.67
2022-12-12T21:46:24.713Z,23.50
2022-12-12T21:49:12.328Z,21.77
2022-12-12T21:51:40.088Z,22.50
2022-12-12T21:54:08.327Z,20.93
2022-12-12T21:56:35.308Z,20.63
2022-12-12T21:59:03.254Z,22.47
2022-12-12T22:01:31.964Z,21.57
2022-12-12T22:03:59.644Z,21.13
2022-12-12T22:06:31.928Z,20.90
2022-12-12T22:09:00.423Z,20.63
2022-12-12T22:11:40.447Z,19.67
2022-12-12T22:14:18.015Z,20.63
2022-12-12T22:16:44.879Z,18.90
2022-12-12T22:19:13.898Z,19.20
2022-12-12T22:21:40.756Z,19.70
2022-12-12T22:24:07.763Z,19.20
2022-12-12T22:26:35.672Z,19.13
2022-12-12T22:29:05.621Z,19.30
2022-12-12T22:31:35.339Z,20.07
2022-12-12T22:34:04.770Z,21.17
2022-12-12T22:36:34.170Z,19.83
2022-12-12T22:39:01.797Z,18.37
2022-12-12T22:41:29.654Z,19.57
2022-12-12T22:43:58.469Z,20.07
2022-12-12T22:46:26.335Z,20.10
2022-12-12T22:48:55.132Z,19.77
2022-12-12T22:51:27.386Z,20.40
2022-12-12T22:54:03.012Z,20.03
2022-12-12T22:56:30.972Z,19.13
2022-12-12T22:58:57.777Z,21.03
2022-12-12T23:01:27.217Z,19.23
2022-12-12T23:03:54.950Z,18.87
2022-12-12T23:06:24.678Z,17.70
2022-12-12T23:08:56.374Z,21.13
2022-12-12T23:11:24.842Z,20.43
2022-12-12T23:13:55.500Z,17.23
2022-12-12T23:16:24.547Z,16.40
2022-12-12T23:18:51.496Z,16.73
2022-12-12T23:21:20.545Z,15.73
2022-12-12T23:23:47.638Z,16.60
2022-12-12T23:26:17.892Z,15.83
2022-12-12T23:28:45.195Z,15.47
2022-12-12T23:31:18.970Z,15.93
2022-12-12T23:33:46.596Z,15.87
2022-12-12T23:36:15.222Z,16.00
2022-12-12T23:38:42.741Z,16.03
2022-12-12T23:41:12.195Z,15.17
2022-12-12T23:43:40.595Z,15.67
2022-12-12T23:46:27.837Z,15.13
2022-12-12T23:49:04.873Z,15.20
2022-12-12T23:51:34.304Z,15.43
2022-12-12T23:54:02.826Z,16.17
2022-12-12T23:56:30.455Z,15.03
2022-12-12T23:58:58.347Z,15.83
